createdAt,value
2024-05-09T00:01:31.069Z,6.90
2024-05-09T00:06:53.769Z,6.90
2024-05-09T00:12:19.113Z,6.90
2024-05-09T00:17:42.163Z,6.90
2024-05-09T00:23:05.357Z,6.90
2024-05-09T00:28:30.830Z,6.80
2024-05-09T00:33:54.190Z,6.70
2024-05-09T00:39:17.132Z,6.60
2024-05-09T00:44:42.585Z,6.60
2024-05-09T00:50:10.119Z,6.60
2024-05-09T00:55:40.067Z,6.60
2024-05-09T01:01:07.737Z,6.50
2024-05-09T01:06:30.498Z,6.50
2024-05-09T01:11:53.257Z,6.40
2024-05-09T01:17:18.799Z,6.40
2024-05-09T01:22:41.573Z,6.20
2024-05-09T01:28:07.465Z,6.30
2024-05-09T01:33:30.992Z,6.20
2024-05-09T01:38:53.867Z,6.10
2024-05-09T01:44:19.313Z,6.10
2024-05-09T01:49:41.995Z,6.10
2024-05-09T01:55:06.634Z,6.00
2024-05-09T02:00:38.907Z,5.90
2024-05-09T02:06:04.989Z,6.00
2024-05-09T02:11:27.812Z,6.00
2024-05-09T02:16:53.343Z,6.00
2024-05-09T02:22:16.069Z,5.90
2024-05-09T02:27:38.897Z,5.80
2024-05-09T02:33:04.915Z,5.70
2024-05-09T02:38:27.825Z,5.70
2024-05-09T02:43:50.668Z,5.60
2024-05-09T02:49:16.121Z,5.60
2024-05-09T02:54:38.965Z,5.50
2024-05-09T03:00:01.611Z,5.40
2024-05-09T03:05:26.985Z,5.40
2024-05-09T03:10:49.766Z,5.30
2024-05-09T03:16:12.577Z,5.40
2024-05-09T03:21:41.179Z,5.30
2024-05-09T03:27:04.081Z,5.30
2024-05-09T03:32:27.172Z,5.30
2024-05-09T03:37:52.544Z,5.30
2024-05-09T03:43:15.781Z,5.20
2024-05-09T03:48:38.769Z,5.30
2024-05-09T03:54:04.183Z,5.40
2024-05-09T03:59:26.852Z,5.40
2024-05-09T04:04:49.771Z,5.50
2024-05-09T04:10:23.990Z,5.60
2024-05-09T04:15:53.327Z,5.70
2024-05-09T04:21:16.024Z,5.90
2024-05-09T04:26:41.309Z,6.10
2024-05-09T04:32:04.921Z,6.10
2024-05-09T04:37:27.552Z,6.30
2024-05-09T04:42:52.790Z,6.40
2024-05-09T04:48:15.792Z,6.60
2024-05-09T04:53:38.636Z,6.70
2024-05-09T04:59:03.990Z,6.90
2024-05-09T05:04:27.007Z,6.90
2024-05-09T05:09:49.660Z,6.90
2024-05-09T05:15:15.114Z,7.00
2024-05-09T05:20:38.147Z,7.50
2024-05-09T05:26:01.136Z,7.70
2024-05-09T05:31:26.380Z,7.80
2024-05-09T05:36:49.238Z,8.10
2024-05-09T05:42:11.953Z,8.40
2024-05-09T05:47:37.314Z,8.80
2024-05-09T05:52:59.890Z,9.00
2024-05-09T05:58:22.944Z,8.60
2024-05-09T06:03:48.454Z,8.70
2024-05-09T06:09:11.691Z,8.90
2024-05-09T06:14:34.494Z,9.00
2024-05-09T06:20:00.002Z,9.40
2024-05-09T06:25:22.952Z,9.90
2024-05-09T06:30:45.767Z,9.90
2024-05-09T06:36:11.114Z,10.00
2024-05-09T06:41:34.275Z,9.90
2024-05-09T06:46:59.348Z,10.00
2024-05-09T06:52:25.915Z,10.30
2024-05-09T06:57:48.673Z,10.40
2024-05-09T07:03:13.987Z,10.40
2024-05-09T07:08:43.338Z,10.60
2024-05-09T07:14:06.808Z,10.70
2024-05-09T07:19:30.060Z,11.10
2024-05-09T07:24:56.315Z,11.40
2024-05-09T07:30:27.086Z,11.60
2024-05-09T07:36:01.215Z,11.60
2024-05-09T07:41:28.697Z,11.70
2024-05-09T07:48:13.370Z,12.10
2024-05-09T07:53:33.303Z,12.60
2024-05-09T07:58:22.724Z,12.80
2024-05-09T08:03:45.645Z,13.00
2024-05-09T08:09:13.829Z,13.20
2024-05-09T08:14:42.811Z,13.50
2024-05-09T08:20:06.850Z,13.70
2024-05-09T08:25:30.418Z,13.60
2024-05-09T08:30:56.163Z,13.40
2024-05-09T08:36:18.923Z,13.30
2024-05-09T08:41:43.642Z,13.30
2024-05-09T08:47:11.180Z,13.50
2024-05-09T08:52:34.872Z,13.60
2024-05-09T08:58:01.476Z,14.10
2024-05-09T09:03:30.497Z,14.40
2024-05-09T09:08:54.645Z,14.30
2024-05-09T09:14:17.411Z,14.40
2024-05-09T09:19:43.378Z,14.60
2024-05-09T09:25:07.675Z,14.40
2024-05-09T09:30:37.295Z,14.50
2024-05-09T09:36:04.153Z,14.70
2024-05-09T09:41:29.839Z,14.60
2024-05-09T09:46:56.204Z,15.00
2024-05-09T09:52:22.257Z,15.20
2024-05-09T09:57:45.245Z,15.10
2024-05-09T10:03:08.089Z,14.80
2024-05-09T10:08:34.916Z,15.00
2024-05-09T10:13:57.655Z,14.90
2024-05-09T10:19:27.057Z,14.70
2024-05-09T10:24:53.219Z,14.80
2024-05-09T10:30:29.717Z,14.80
2024-05-09T10:36:03.654Z,14.80
2024-05-09T10:41:28.844Z,15.00
2024-05-09T10:46:52.199Z,14.90
2024-05-09T10:52:14.903Z,14.80
2024-05-09T10:57:43.408Z,15.00
2024-05-09T11:03:06.700Z,15.10
2024-05-09T11:08:30.755Z,15.30
2024-05-09T11:13:56.143Z,15.40
2024-05-09T11:19:19.434Z,15.60
2024-05-09T11:24:42.615Z,15.60
2024-05-09T11:30:26.665Z,15.70
2024-05-09T11:35:54.483Z,15.80
2024-05-09T11:41:27.890Z,15.80
2024-05-09T11:46:53.472Z,16.00
2024-05-09T11:52:16.295Z,16.00
2024-05-09T11:57:39.545Z,15.80
2024-05-09T12:03:06.133Z,15.60
2024-05-09T12:08:28.918Z,15.60
2024-05-09T12:13:51.608Z,15.80
2024-05-09T12:19:16.993Z,16.10
2024-05-09T12:24:39.744Z,15.80
2024-05-09T12:30:02.526Z,16.10
2024-05-09T12:35:27.904Z,16.10
2024-05-09T12:40:50.830Z,16.10
2024-05-09T12:46:13.642Z,16.30
2024-05-09T12:51:39.001Z,16.50
2024-05-09T12:57:01.730Z,16.60
2024-05-09T13:02:24.688Z,16.50
2024-05-09T13:07:50.133Z,16.50
2024-05-09T13:13:13.245Z,16.60
2024-05-09T13:18:36.051Z,16.70
2024-05-09T13:24:01.514Z,16.90
2024-05-09T13:29:24.949Z,16.80
2024-05-09T13:34:47.583Z,16.90
2024-05-09T13:40:14.524Z,17.00
2024-05-09T13:45:37.402Z,17.10
2024-05-09T13:51:00.347Z,17.10
2024-05-09T13:56:25.705Z,17.20
2024-05-09T14:01:48.481Z,17.20
2024-05-09T14:07:11.593Z,17.10
2024-05-09T14:12:37.269Z,17.20
2024-05-09T14:18:00.000Z,17.10
2024-05-09T14:23:23.151Z,17.00
2024-05-09T14:28:48.379Z,17.20
2024-05-09T14:34:11.375Z,17.30
2024-05-09T14:39:34.232Z,17.30
2024-05-09T14:44:59.652Z,17.50
2024-05-09T14:50:28.105Z,17.50
2024-05-09T14:55:57.936Z,17.40
2024-05-09T15:01:23.452Z,17.30
2024-05-09T15:06:46.245Z,17.40
2024-05-09T15:12:08.985Z,17.50
2024-05-09T15:17:34.690Z,17.50
2024-05-09T15:22:58.091Z,17.60
2024-05-09T15:28:20.875Z,17.60
2024-05-09T15:33:46.366Z,17.60
2024-05-09T15:39:09.039Z,17.60
2024-05-09T15:44:31.786Z,17.60
2024-05-09T15:49:57.140Z,17.50
2024-05-09T15:55:19.761Z,17.50
2024-05-09T16:00:44.320Z,17.60
2024-05-09T16:06:10.986Z,17.50
2024-05-09T16:11:33.758Z,17.50
2024-05-09T16:16:56.667Z,17.50
2024-05-09T16:22:22.126Z,17.60
2024-05-09T16:27:45.120Z,17.70
2024-05-09T16:33:08.760Z,17.40
2024-05-09T16:38:34.907Z,17.50
2024-05-09T16:43:57.753Z,17.50
2024-05-09T16:49:20.648Z,17.40
2024-05-09T16:54:46.034Z,17.30
2024-05-09T17:00:14.786Z,17.30
2024-05-09T17:05:44.873Z,17.30
2024-05-09T17:11:10.987Z,17.20
2024-05-09T17:16:33.820Z,17.10
2024-05-09T17:21:57.037Z,17.20
2024-05-09T17:27:22.517Z,17.20
2024-05-09T17:32:45.308Z,17.10
2024-05-09T17:38:08.500Z,17.10
2024-05-09T17:43:34.078Z,16.90
2024-05-09T17:48:59.585Z,16.70
2024-05-09T17:54:23.461Z,16.70
2024-05-09T17:59:48.728Z,16.60
2024-05-09T18:05:11.617Z,16.50
2024-05-09T18:10:38.123Z,16.50
2024-05-09T18:16:06.000Z,16.30
2024-05-09T18:21:28.709Z,16.30
2024-05-09T18:26:51.429Z,16.20
2024-05-09T18:32:16.800Z,16.10
2024-05-09T18:37:40.263Z,16.00
2024-05-09T18:43:03.682Z,15.90
2024-05-09T18:48:29.189Z,15.70
2024-05-09T18:53:51.831Z,15.60
2024-05-09T18:59:14.596Z,15.40
2024-05-09T19:04:40.172Z,15.30
2024-05-09T19:10:03.384Z,15.10
2024-05-09T19:15:26.103Z,15.00
2024-05-09T19:20:51.438Z,14.90
2024-05-09T19:26:14.286Z,14.80
2024-05-09T19:31:36.975Z,14.80
2024-05-09T19:37:02.489Z,14.70
2024-05-09T19:42:25.167Z,14.50
2024-05-09T19:47:47.992Z,14.40
2024-05-09T19:53:13.451Z,14.30
2024-05-09T19:58:36.175Z,14.20
2024-05-09T20:03:58.958Z,14.10
2024-05-09T20:09:24.364Z,14.10
2024-05-09T20:14:46.966Z,14.00
2024-05-09T20:20:16.761Z,13.80
2024-05-09T20:25:49.559Z,13.70
2024-05-09T20:31:19.735Z,13.70
2024-05-09T20:36:42.664Z,13.10
2024-05-09T20:42:08.410Z,13.30
2024-05-09T20:47:31.213Z,13.50
2024-05-09T20:52:54.104Z,13.60
2024-05-09T20:58:19.446Z,13.60
2024-05-09T21:03:42.373Z,13.50
2024-05-09T21:09:05.119Z,13.50
2024-05-09T21:14:30.663Z,13.30
2024-05-09T21:19:53.559Z,13.00
2024-05-09T21:25:16.248Z,13.00
2024-05-09T21:30:43.189Z,13.00
2024-05-09T21:36:09.219Z,12.90
2024-05-09T21:41:31.869Z,13.00
2024-05-09T21:46:57.288Z,12.90
2024-05-09T21:52:20.010Z,12.90
2024-05-09T21:57:43.014Z,12.90
2024-05-09T22:03:10.271Z,12.80
2024-05-09T22:08:34.190Z,12.70
2024-05-09T22:13:56.856Z,12.70
2024-05-09T22:19:22.241Z,12.60
2024-05-09T22:24:44.948Z,12.50
2024-05-09T22:30:11.914Z,12.30
2024-05-09T22:35:42.675Z,12.30
2024-05-09T22:41:06.434Z,12.30
2024-05-09T22:46:29.266Z,12.30
2024-05-09T22:51:54.588Z,12.30
2024-05-09T22:57:17.447Z,12.20
2024-05-09T23:09:34.615Z,12.00
2024-05-09T23:14:57.498Z,11.90
2024-05-09T23:20:29.906Z,11.80
2024-05-09T23:26:02.678Z,11.70
2024-05-09T23:31:25.268Z,11.80
2024-05-09T23:36:47.934Z,11.60
2024-05-09T23:42:13.342Z,11.70
2024-05-09T23:47:36.109Z,11.60
2024-05-09T23:52:58.753Z,11.60
2024-05-09T23:58:24.092Z,11.50
